Time;durP1;ratioP1;P1;durP2;ratioP2;P2;SDS_P1;SDS_P2;PMS_P1;PMS_P2;Temp;Humidity;BMP_temperature;BMP_pressure;BME280_temperature;BME280_humidity;BME280_pressure;Samples;Min_cycle;Max_cycle;Signal;HPM_P1;HPM_P2
2024/02/18 00:00:53;;;;;;;;;;;;;;;26.14;39.43;95688.22;4954415;28;7239;-40
2024/02/18 00:03:29;;;;;;;;;;;;;;;26.15;39.11;95687.72;4951271;28;8848;-40
2024/02/18 00:06:24;;;;;;;;;;;;;;;26.15;39.67;95689.72;4958650;28;9056;-40
2024/02/18 00:09:02;;;;;;;;;;;;;;;26.10;38.97;95680.13;4912422;29;9075;-41
2024/02/18 00:11:44;;;;;;;;;;;;;;;26.13;39.01;95681.94;4936093;29;9074;-41
2024/02/18 00:14:35;;;;;;;;;;;;;;;26.15;39.08;95686.94;4935571;29;8758;-40
2024/02/18 00:17:06;;;;;;;;;;;;;;;26.15;39.64;95678.69;4946649;28;9125;-41
2024/02/18 00:19:35;;;;;;;;;;;;;;;26.12;38.99;95680.41;4935365;28;7225;-43
2024/02/18 00:22:03;;;;;;;;;;;;;;;26.13;39.55;95672.91;4935835;29;7148;-41
2024/02/18 00:24:31;;;;;;;;;;;;;;;26.12;39.34;95674.88;4956306;28;7346;-42
2024/02/18 00:26:57;;;;;;;;;;;;;;;26.15;39.49;95673.16;4971073;28;7255;-40
2024/02/18 00:29:23;;;;;;;;;;;;;;;26.13;39.05;95675.66;4955762;28;7171;-40
2024/02/18 00:31:49;;;;;;;;;;;;;;;26.14;39.11;95666.88;4955751;28;8653;-42
2024/02/18 00:34:20;;;;;;;;;;;;;;;26.12;39.73;95666.63;4955056;28;7050;-42
2024/02/18 00:36:47;;;;;;;;;;;;;;;26.17;39.40;95674.19;4966373;28;7226;-40
2024/02/18 00:39:17;;;;;;;;;;;;;;;26.18;38.91;95674.97;4973287;28;9096;-40
2024/02/18 00:41:42;;;;;;;;;;;;;;;26.16;39.48;95669.91;4971518;28;7085;-41
2024/02/18 00:44:11;;;;;;;;;;;;;;;26.16;39.23;95675.44;4962333;28;7861;-42
2024/02/18 00:46:39;;;;;;;;;;;;;;;26.13;39.94;95676.41;5037048;28;7233;-41
2024/02/18 00:49:05;;;;;;;;;;;;;;;26.16;38.88;95680.94;5038674;28;9072;-43
2024/02/18 00:51:31;;;;;;;;;;;;;;;26.16;39.98;95680.22;5032744;28;7049;-42
2024/02/18 00:54:01;;;;;;;;;;;;;;;26.15;39.11;95679.44;5046284;28;7167;-43
2024/02/18 00:56:28;;;;;;;;;;;;;;;26.16;39.26;95674.69;5052800;28;7195;-41
2024/02/18 00:59:19;;;;;;;;;;;;;;;26.15;39.81;95670.41;5037142;28;8848;-40
2024/02/18 01:01:50;;;;;;;;;;;;;;;26.14;39.25;95680.69;5049025;28;9369;-41
2024/02/18 01:04:19;;;;;;;;;;;;;;;26.13;39.15;95679.19;5049705;28;9063;-42
2024/02/18 01:06:48;;;;;;;;;;;;;;;26.14;39.62;95682.69;5042606;28;7189;-40
2024/02/18 01:09:15;;;;;;;;;;;;;;;26.13;39.12;95676.41;5030166;28;9126;-41
2024/02/18 01:11:45;;;;;;;;;;;;;;;26.14;39.17;95683.44;5035857;28;9051;-41
2024/02/18 01:14:13;;;;;;;;;;;;;;;26.13;39.24;95670.91;5033877;28;7366;-48
2024/02/18 01:16:42;;;;;;;;;;;;;;;26.12;39.11;95672.13;5032585;28;9045;-47
2024/02/18 01:19:08;;;;;;;;;;;;;;;26.15;39.15;95673.94;5023303;28;8811;-47
2024/02/18 01:21:34;;;;;;;;;;;;;;;26.18;40.02;95688.75;5037593;28;6987;-47
2024/02/18 01:24:02;;;;;;;;;;;;;;;26.16;39.31;95678.19;5033169;28;7257;-48
2024/02/18 01:26:30;;;;;;;;;;;;;;;26.13;39.21;95676.41;5032301;28;7942;-46
2024/02/18 01:28:56;;;;;;;;;;;;;;;26.17;39.28;95688.00;5033008;28;6984;-48
2024/02/18 01:31:29;;;;;;;;;;;;;;;26.13;38.99;95673.66;5032782;28;6990;-48
2024/02/18 01:33:55;;;;;;;;;;;;;;;26.14;38.88;95683.44;5036253;28;8830;-47
2024/02/18 01:36:22;;;;;;;;;;;;;;;26.15;39.24;95676.69;5049336;28;6978;-49
2024/02/18 01:38:48;;;;;;;;;;;;;;;26.10;39.51;95671.84;5048155;28;7103;-48
2024/02/18 01:41:20;;;;;;;;;;;;;;;26.15;39.46;95673.94;5039412;28;7225;-46
2024/02/18 01:43:47;;;;;;;;;;;;;;;26.15;39.68;95673.94;5039011;28;7209;-51
2024/02/18 01:46:21;;;;;;;;;;;;;;;26.16;39.69;95674.69;5037192;28;8822;-52
2024/02/18 01:48:47;;;;;;;;;;;;;;;26.13;39.73;95668.16;5027250;28;9300;-50
2024/02/18 01:51:17;;;;;;;;;;;;;;;26.11;39.55;95656.84;5029927;28;7132;-48
2024/02/18 01:53:46;;;;;;;;;;;;;;;26.13;39.97;95659.09;5031589;28;7276;-51
2024/02/18 01:56:17;;;;;;;;;;;;;;;26.14;39.24;95650.34;5034912;28;7239;-52
2024/02/18 01:58:47;;;;;;;;;;;;;;;26.09;39.67;95645.53;5039518;28;9114;-48
2024/02/18 02:01:26;;;;;;;;;;;;;;;26.12;39.74;95647.31;5032099;28;7235;-46
2024/02/18 02:03:56;;;;;;;;;;;;;;;26.14;38.93;95644.81;5037436;28;7275;-49
2024/02/18 02:06:23;;;;;;;;;;;;;;;26.11;39.34;95643.06;5044770;28;8781;-50
2024/02/18 02:08:51;;;;;;;;;;;;;;;26.15;39.86;95640.84;5021230;28;7232;-48
2024/02/18 02:11:22;;;;;;;;;;;;;;;26.13;39.25;95637.03;5036563;28;6971;-51
2024/02/18 02:14:16;;;;;;;;;;;;;;;26.14;39.67;95628.28;5046776;28;9222;-48
2024/02/18 02:17:14;;;;;;;;;;;;;;;26.14;39.10;95624.78;4954328;28;7168;-52
2024/02/18 02:19:48;;;;;;;;;;;;;;;26.12;39.35;95619.00;4974941;28;9378;-47
2024/02/18 02:22:23;;;;;;;;;;;;;;;26.11;39.73;95615.47;4958766;28;7360;-49
2024/02/18 02:25:02;;;;;;;;;;;;;;;26.11;39.71;95618.25;4958707;28;7233;-56
2024/02/18 02:27:34;;;;;;;;;;;;;;;26.11;39.72;95612.72;4972757;28;7113;-57
2024/02/18 02:30:17;;;;;;;;;;;;;;;26.09;39.81;95601.44;4964410;28;6980;-57
2024/02/18 02:32:45;;;;;;;;;;;;;;;26.11;39.38;95618.25;4977176;28;9086;-56
2024/02/18 02:35:43;;;;;;;;;;;;;;;26.11;39.81;95618.25;4959436;28;7436;-56
2024/02/18 02:38:20;;;;;;;;;;;;;;;26.09;39.78;95614.44;4959218;28;7186;-56
2024/02/18 02:41:06;;;;;;;;;;;;;;;26.13;39.87;95624.03;4959145;28;7205;-56
2024/02/18 02:43:36;;;;;;;;;;;;;;;26.09;39.73;95609.69;4956477;28;7358;-56
2024/02/18 02:46:04;;;;;;;;;;;;;;;26.10;39.81;95611.19;4956488;28;8722;-56
2024/02/18 02:48:32;;;;;;;;;;;;;;;26.11;39.50;95603.69;4975432;28;7081;-56
2024/02/18 02:50:59;;;;;;;;;;;;;;;26.10;39.33;95610.44;4962315;28;8720;-56
2024/02/18 02:53:27;;;;;;;;;;;;;;;26.10;40.01;95607.69;4983179;28;7231;-56
2024/02/18 02:55:53;;;;;;;;;;;;;;;26.08;39.50;95602.66;5051715;28;7233;-56
2024/02/18 02:58:23;;;;;;;;;;;;;;;26.10;40.17;95599.41;5035465;28;7448;-56
2024/02/18 03:01:01;;;;;;;;;;;;;;;26.10;39.66;95602.16;5048730;28;7054;-57
2024/02/18 03:03:31;;;;;;;;;;;;;;;26.09;39.35;95597.91;5034777;28;9003;-57
2024/02/18 03:06:36;;;;;;;;;;;;;;;26.10;40.13;95599.41;5019588;28;7524;-56
2024/02/18 03:09:07;;;;;;;;;;;;;;;26.09;39.30;95598.66;5021896;28;6952;-56
2024/02/18 03:11:33;;;;;;;;;;;;;;;26.09;39.34;95595.91;5035014;28;6997;-57
2024/02/18 03:14:16;;;;;;;;;;;;;;;26.10;39.51;95596.66;5035530;28;9263;-56
2024/02/18 03:17:07;;;;;;;;;;;;;;;26.11;39.52;95595.41;5030460;28;8491;-57
2024/02/18 03:20:07;;;;;;;;;;;;;;;26.08;39.36;95591.63;5015292;28;9123;-56
2024/02/18 03:22:52;;;;;;;;;;;;;;;26.11;39.61;95595.41;5035151;28;9476;-56
2024/02/18 03:29:24;;;;;;;;;;;;;;;26.10;39.96;95585.63;5000401;28;9095;-56
2024/02/18 03:32:43;;;;;;;;;;;;;;;26.09;39.66;95593.16;4891023;29;8953;-56
2024/02/18 03:35:27;;;;;;;;;;;;;;;26.09;39.38;95597.91;4898340;29;8856;-41
2024/02/18 03:37:56;;;;;;;;;;;;;;;26.07;40.07;95592.84;4896786;29;8798;-41
2024/02/18 03:40:23;;;;;;;;;;;;;;;26.09;39.73;95590.41;4890353;29;7133;-41
2024/02/18 03:42:51;;;;;;;;;;;;;;;26.07;40.01;95592.84;4900441;29;7169;-41
2024/02/18 03:45:19;;;;;;;;;;;;;;;26.07;39.18;95590.09;4899801;29;7249;-42
2024/02/18 03:48:00;;;;;;;;;;;;;;;26.08;39.77;95597.13;4894325;29;6996;-41
2024/02/18 03:50:27;;;;;;;;;;;;;;;26.06;39.98;95587.81;4905384;29;7263;-42
2024/02/18 03:52:55;;;;;;;;;;;;;;;26.09;39.27;95598.66;4897891;29;6997;-41
2024/02/18 03:55:21;;;;;;;;;;;;;;;26.07;39.36;95592.09;4882824;29;9109;-41
2024/02/18 03:58:01;;;;;;;;;;;;;;;26.06;39.96;95594.09;4882442;29;9248;-40
2024/02/18 04:01:18;;;;;;;;;;;;;;;26.09;39.06;95589.63;4885286;29;7228;-41
2024/02/18 04:03:56;;;;;;;;;;;;;;;26.07;40.13;95592.84;4889875;29;7244;-42
2024/02/18 04:06:31;;;;;;;;;;;;;;;26.09;39.45;95598.66;4928280;28;9079;-41
2024/02/18 04:09:06;;;;;;;;;;;;;;;26.08;39.54;95597.13;5033876;28;7172;-41
2024/02/18 04:11:35;;;;;;;;;;;;;;;26.09;39.08;95598.66;5033901;28;7276;-41
2024/02/18 04:14:49;;;;;;;;;;;;;;;26.09;39.58;95597.91;5034009;28;7193;-41
2024/02/18 04:17:15;;;;;;;;;;;;;;;26.09;39.44;95592.38;5012216;28;7276;-41
2024/02/18 04:19:51;;;;;;;;;;;;;;;26.09;39.45;95593.16;4958179;28;7200;-41
2024/02/18 04:22:56;;;;;;;;;;;;;;;26.09;39.78;95600.66;4973996;28;7020;-41
2024/02/18 04:25:39;;;;;;;;;;;;;;;26.10;39.82;95599.41;4977482;28;8045;-40
2024/02/18 04:28:05;;;;;;;;;;;;;;;26.10;39.44;95597.41;4987631;28;7260;-41
2024/02/18 04:30:33;;;;;;;;;;;;;;;26.07;39.78;95598.38;4986329;28;7264;-41
2024/02/18 04:33:02;;;;;;;;;;;;;;;26.09;39.38;95597.91;4968555;28;7258;-40
2024/02/18 04:35:36;;;;;;;;;;;;;;;26.08;39.35;95599.91;4976503;28;8857;-41
2024/02/18 04:38:22;;;;;;;;;;;;;;;26.10;39.74;95593.88;4976903;28;7330;-43
2024/02/18 04:40:47;;;;;;;;;;;;;;;26.07;39.69;95589.34;4967064;28;9223;-40
2024/02/18 04:43:24;;;;;;;;;;;;;;;26.06;39.58;95593.31;4980189;28;7060;-40
2024/02/18 04:45:53;;;;;;;;;;;;;;;26.09;39.94;95597.91;5005940;28;7288;-39
2024/02/18 04:48:22;;;;;;;;;;;;;;;26.09;39.43;95597.91;4976234;28;7206;-43
2024/02/18 04:50:48;;;;;;;;;;;;;;;26.09;39.41;95597.91;4974731;28;9081;-40
2024/02/18 04:53:14;;;;;;;;;;;;;;;26.08;39.17;95599.09;4989851;28;7038;-41
2024/02/18 04:55:39;;;;;;;;;;;;;;;26.09;39.77;95598.66;5032952;28;7554;-40
2024/02/18 04:58:07;;;;;;;;;;;;;;;26.09;39.37;95593.16;5033044;28;7080;-39
2024/02/18 05:00:52;;;;;;;;;;;;;;;26.08;39.31;95596.34;5037092;28;7186;-39
2024/02/18 05:03:55;;;;;;;;;;;;;;;26.11;39.78;95596.19;5032946;28;6975;-40
2024/02/18 05:06:57;;;;;;;;;;;;;;;26.10;39.48;95600.16;5034299;28;8808;-40
2024/02/18 05:10:03;;;;;;;;;;;;;;;26.12;39.83;95600.44;5033921;28;8837;-40
2024/02/18 05:12:57;;;;;;;;;;;;;;;26.12;39.82;95591.44;5033377;28;9119;-40
2024/02/18 05:15:29;;;;;;;;;;;;;;;26.10;39.85;95588.38;5033731;28;6993;-40
2024/02/18 05:18:05;;;;;;;;;;;;;;;26.12;39.76;95586.66;5027146;28;7112;-40
2024/02/18 05:20:51;;;;;;;;;;;;;;;26.14;39.15;95597.94;5032815;28;7286;-39
2024/02/18 05:23:23;;;;;;;;;;;;;;;26.13;39.33;95592.94;5033250;28;7068;-42
2024/02/18 05:26:18;;;;;;;;;;;;;;;26.11;39.82;95593.41;5034522;28;8738;-41
2024/02/18 05:28:51;;;;;;;;;;;;;;;26.08;38.95;95590.84;5018867;28;7183;-39
2024/02/18 05:31:30;;;;;;;;;;;;;;;26.11;39.06;95595.41;5033967;28;6880;-40
2024/02/18 05:33:57;;;;;;;;;;;;;;;26.08;39.34;95591.63;5034074;28;6972;-39
2024/02/18 05:37:00;;;;;;;;;;;;;;;26.11;39.87;95595.41;5033481;28;9336;-39
2024/02/18 05:39:26;;;;;;;;;;;;;;;26.10;39.75;95583.63;5044948;28;8862;-40
2024/02/18 05:42:18;;;;;;;;;;;;;;;26.10;39.37;95583.63;5020707;28;6976;-40
2024/02/18 05:44:49;;;;;;;;;;;;;;;26.11;39.27;95587.16;4977003;28;7185;-40
2024/02/18 05:47:44;;;;;;;;;;;;;;;26.10;39.45;95580.88;4960328;28;7178;-40
2024/02/18 05:50:12;;;;;;;;;;;;;;;26.10;39.93;95582.84;4953469;28;7217;-40
2024/02/18 05:52:39;;;;;;;;;;;;;;;26.10;39.46;95591.13;4951452;28;7343;-38
2024/02/18 05:55:05;;;;;;;;;;;;;;;26.10;39.64;95586.38;4957480;28;9028;-39
2024/02/18 05:57:58;;;;;;;;;;;;;;;26.10;39.33;95593.88;4956515;28;6978;-38
2024/02/18 06:01:00;;;;;;;;;;;;;;;26.12;39.29;95589.41;4955044;28;7067;-38
2024/02/18 06:03:35;;;;;;;;;;;;;;;26.10;39.50;95583.63;4918650;29;6987;-43
2024/02/18 06:06:03;;;;;;;;;;;;;;;26.11;39.40;95585.16;4921807;29;7058;-42
2024/02/18 06:08:32;;;;;;;;;;;;;;;26.11;39.50;95579.63;4921649;29;9455;-42
2024/02/18 06:11:30;;;;;;;;;;;;;;;26.12;39.78;95589.41;4933072;29;10441;-43
2024/02/18 06:14:30;;;;;;;;;;;;;;;26.10;39.95;95588.38;4865416;29;8804;-43
2024/02/18 06:17:04;;;;;;;;;;;;;;;26.08;39.54;95580.59;4880489;29;7239;-42
2024/02/18 06:19:30;;;;;;;;;;;;;;;26.10;39.38;95589.13;4879970;29;7274;-42
2024/02/18 06:21:58;;;;;;;;;;;;;;;26.09;39.32;95589.63;4856207;29;9074;-43
2024/02/18 06:24:34;;;;;;;;;;;;;;;26.08;39.43;95580.59;4832049;29;8950;-43
2024/02/18 06:27:12;;;;;;;;;;;;;;;26.10;39.17;95593.88;4831973;29;9147;-43
2024/02/18 06:29:38;;;;;;;;;;;;;;;26.09;39.46;95587.63;4854490;29;6995;-42
2024/02/18 06:32:04;;;;;;;;;;;;;;;26.10;40.05;95589.13;4858747;29;7612;-44
2024/02/18 06:34:30;;;;;;;;;;;;;;;26.10;40.15;95593.88;4860266;29;9287;-42
2024/02/18 06:36:56;;;;;;;;;;;;;;;26.08;39.50;95585.31;4868246;29;7231;-44
2024/02/18 06:39:22;;;;;;;;;;;;;;;26.10;39.95;95591.13;4904970;29;7082;-42
2024/02/18 06:41:53;;;;;;;;;;;;;;;26.11;39.92;95589.91;4929894;29;7202;-43
2024/02/18 06:44:21;;;;;;;;;;;;;;;26.10;39.90;95588.38;4936104;29;9313;-42
2024/02/18 06:47:03;;;;;;;;;;;;;;;26.08;39.73;95586.09;4911897;29;7343;-43
2024/02/18 06:49:30;;;;;;;;;;;;;;;26.10;39.81;95583.63;4984399;28;8542;-43
2024/02/18 06:51:57;;;;;;;;;;;;;;;26.10;39.96;95585.63;5035186;28;7224;-42
2024/02/18 06:54:23;;;;;;;;;;;;;;;26.10;39.85;95586.38;5045334;28;7592;-44
2024/02/18 06:57:28;;;;;;;;;;;;;;;26.11;40.05;95589.91;5051892;28;8458;-42
2024/02/18 07:00:13;;;;;;;;;;;;;;;26.10;39.91;95588.38;5052213;28;8729;-41
2024/02/18 07:02:49;;;;;;;;;;;;;;;26.10;40.27;95586.38;5052275;28;7081;-42
2024/02/18 07:05:36;;;;;;;;;;;;;;;26.11;39.68;95595.41;5016909;28;7015;-42
2024/02/18 07:08:48;;;;;;;;;;;;;;;26.09;39.64;95587.63;5018503;28;7237;-42
2024/02/18 07:11:16;;;;;;;;;;;;;;;26.09;39.48;95581.34;5025167;28;7276;-42
2024/02/18 07:13:59;;;;;;;;;;;;;;;26.10;39.25;95586.38;5017756;28;7239;-53
2024/02/18 07:16:41;;;;;;;;;;;;;;;26.09;39.53;95584.88;5001693;28;8488;-53
2024/02/18 07:19:21;;;;;;;;;;;;;;;26.11;39.76;95587.16;5017972;28;9036;-54
2024/02/18 07:21:46;;;;;;;;;;;;;;;26.09;39.98;95573.84;5012109;28;7363;-55
2024/02/18 07:24:15;;;;;;;;;;;;;;;26.15;40.10;95580.19;5016141;28;9173;-54
2024/02/18 07:26:44;;;;;;;;;;;;;;;26.15;40.50;95580.19;5011239;28;8938;-51
2024/02/18 07:29:11;;;;;;;;;;;;;;;26.20;39.93;95586.22;4994480;28;9039;-55
2024/02/18 07:31:46;;;;;;;;;;;;;;;26.21;40.20;95582.25;5010794;28;7288;-54
2024/02/18 07:34:21;;;;;;;;;;;;;;;26.16;40.33;95576.16;4997442;28;7245;-54
2024/02/18 07:37:02;;;;;;;;;;;;;;;26.17;39.89;95574.94;4996909;28;7307;-49
2024/02/18 07:39:29;;;;;;;;;;;;;;;26.16;40.36;95576.16;5010145;28;7251;-52
2024/02/18 07:42:06;;;;;;;;;;;;;;;26.16;40.25;95581.69;5032095;28;7001;-52
2024/02/18 07:44:51;;;;;;;;;;;;;;;26.15;39.57;95579.41;5017060;28;9680;-54
2024/02/18 07:47:27;;;;;;;;;;;;;;;26.15;40.04;95579.41;4999866;28;9051;-53
2024/02/18 07:49:53;;;;;;;;;;;;;;;26.13;40.36;95585.41;5016500;28;8220;-50
2024/02/18 07:52:19;;;;;;;;;;;;;;;26.12;39.70;95589.41;5032702;28;9045;-54
2024/02/18 07:54:48;;;;;;;;;;;;;;;26.10;39.64;95580.09;5042217;28;7043;-52
2024/02/18 07:57:18;;;;;;;;;;;;;;;26.12;40.30;95580.41;5040387;28;9070;-51
2024/02/18 08:00:05;;;;;;;;;;;;;;;26.10;40.36;95580.09;5034556;28;7799;-54
2024/02/18 08:02:31;;;;;;;;;;;;;;;26.09;39.74;95576.59;5030552;28;8804;-52
2024/02/18 08:08:49;;;;;;;;;;;;;;;26.11;40.56;95573.34;5035118;28;8976;-54
2024/02/18 08:11:47;;;;;;;;;;;;;;;26.13;40.28;95568.13;5034585;28;7257;-54
2024/02/18 08:14:26;;;;;;;;;;;;;;;26.10;40.27;95561.56;5014029;28;7452;-52
2024/02/18 08:17:06;;;;;;;;;;;;;;;26.12;39.40;95563.84;5022821;28;7113;-52
2024/02/18 08:19:50;;;;;;;;;;;;;;;26.10;39.87;95567.06;5044440;28;7295;-50
2024/02/18 08:22:24;;;;;;;;;;;;;;;26.12;40.05;95572.88;5033414;28;8211;-39
2024/02/18 08:24:56;;;;;;;;;;;;;;;26.14;39.98;95570.38;5014435;28;9081;-41
2024/02/18 08:27:34;;;;;;;;;;;;;;;26.12;39.55;95575.63;5022051;28;7239;-42
2024/02/18 08:30:04;;;;;;;;;;;;;;;26.12;39.62;95572.88;5049908;28;7528;-43
2024/02/18 08:32:29;;;;;;;;;;;;;;;26.15;39.80;95571.91;5033558;28;6985;-42
2024/02/18 08:34:57;;;;;;;;;;;;;;;26.10;39.90;95560.81;5040555;28;9358;-40
2024/02/18 08:37:22;;;;;;;;;;;;;;;26.11;39.52;95568.59;5038538;28;7286;-42
2024/02/18 08:39:49;;;;;;;;;;;;;;;26.14;40.09;95567.63;5052515;28;7275;-40
2024/02/18 08:42:34;;;;;;;;;;;;;;;26.19;39.47;95568.19;5054628;28;9133;-41
2024/02/18 08:45:01;;;;;;;;;;;;;;;26.18;39.28;95561.91;5054347;28;6972;-42
2024/02/18 08:47:41;;;;;;;;;;;;;;;26.19;40.19;95562.66;5036573;28;8750;-42
2024/02/18 08:50:07;;;;;;;;;;;;;;;26.15;39.66;95557.34;5046667;28;7294;-41
2024/02/18 08:52:35;;;;;;;;;;;;;;;26.12;40.06;95553.56;5031225;28;8778;-42
2024/02/18 08:55:01;;;;;;;;;;;;;;;26.17;40.09;95552.88;5051316;28;9359;-41
2024/02/18 08:57:41;;;;;;;;;;;;;;;26.17;39.72;95552.88;5033553;28;9066;-42
2024/02/18 09:00:09;;;;;;;;;;;;;;;26.17;40.46;95544.59;5033589;28;9203;-40
2024/02/18 09:02:43;;;;;;;;;;;;;;;26.17;39.97;95536.31;5032869;28;7067;-41
2024/02/18 09:05:11;;;;;;;;;;;;;;;26.15;39.50;95541.56;5029969;28;7214;-41
2024/02/18 09:07:37;;;;;;;;;;;;;;;26.13;39.25;95546.06;5040510;28;7236;-41
2024/02/18 09:10:38;;;;;;;;;;;;;;;26.16;39.40;95556.84;5035164;28;7046;-41
2024/02/18 09:13:15;;;;;;;;;;;;;;;26.19;39.83;95551.63;5016269;28;9422;-40
2024/02/18 09:15:42;;;;;;;;;;;;;;;26.13;40.21;95546.81;5025711;28;7212;-41
2024/02/18 09:18:23;;;;;;;;;;;;;;;26.14;39.98;95548.31;5024118;28;7286;-41
2024/02/18 09:21:02;;;;;;;;;;;;;;;26.13;39.90;95549.56;5023091;28;9088;-42
2024/02/18 09:23:46;;;;;;;;;;;;;;;26.17;39.87;95547.34;5012759;28;7331;-41
2024/02/18 09:27:01;;;;;;;;;;;;;;;26.18;40.13;95548.13;5019229;28;7275;-41
2024/02/18 09:29:58;;;;;;;;;;;;;;;26.17;39.30;95547.34;4974626;28;7456;-40
2024/02/18 09:32:33;;;;;;;;;;;;;;;26.15;39.86;95541.56;4884668;29;9439;-38
2024/02/18 09:35:10;;;;;;;;;;;;;;;26.16;40.02;95545.09;4901917;29;7213;-38
2024/02/18 09:37:53;;;;;;;;;;;;;;;26.21;39.27;95540.88;4918501;29;7243;-38
2024/02/18 09:40:22;;;;;;;;;;;;;;;26.19;40.00;95546.13;4892334;29;8218;-37
2024/02/18 09:42:51;;;;;;;;;;;;;;;26.20;39.22;95547.63;4884282;29;7281;-38
2024/02/18 09:45:44;;;;;;;;;;;;;;;26.21;40.31;95538.13;4884202;29;6869;-39
2024/02/18 09:48:26;;;;;;;;;;;;;;;26.22;39.94;95545.91;4892951;29;7341;-38
2024/02/18 09:50:52;;;;;;;;;;;;;;;26.23;39.68;95546.66;4865908;29;7245;-38
2024/02/18 09:53:19;;;;;;;;;;;;;;;26.19;40.13;95543.38;4849364;29;9175;-37
2024/02/18 09:55:51;;;;;;;;;;;;;;;26.21;40.12;95544.38;4862333;29;7285;-38
2024/02/18 09:58:28;;;;;;;;;;;;;;;26.22;39.57;95547.88;4862341;29;7873;-38
2024/02/18 10:01:04;;;;;;;;;;;;;;;26.20;40.06;95544.84;4862360;29;9111;-38
2024/02/18 10:03:31;;;;;;;;;;;;;;;26.21;39.57;95543.63;4840235;29;9087;-38
2024/02/18 10:06:13;;;;;;;;;;;;;;;26.19;39.72;95541.34;4900834;29;7078;-38
2024/02/18 10:08:51;;;;;;;;;;;;;;;26.18;40.07;95528.81;4956809;28;9168;-38
2024/02/18 10:11:46;;;;;;;;;;;;;;;26.20;39.53;95540.13;5040932;28;7027;-38
2024/02/18 10:14:26;;;;;;;;;;;;;;;26.20;39.98;95533.84;4958697;28;9738;-39
2024/02/18 10:16:54;;;;;;;;;;;;;;;26.23;40.10;95530.09;4945803;28;7474;-39
2024/02/18 10:20:05;;;;;;;;;;;;;;;26.22;40.30;95534.88;4939480;28;6998;-39
2024/02/18 10:22:30;;;;;;;;;;;;;;;26.23;40.82;95528.09;4905979;29;7067;-41
2024/02/18 10:25:08;;;;;;;;;;;;;;;26.23;40.76;95521.84;4899033;29;7226;-39
2024/02/18 10:27:45;;;;;;;;;;;;;;;26.24;40.92;95515.06;4906621;29;9165;-39
2024/02/18 10:30:20;;;;;;;;;;;;;;;26.26;40.86;95518.84;4901416;29;6991;-39
2024/02/18 10:33:15;;;;;;;;;;;;;;;26.26;40.76;95510.56;4906270;29;7708;-39
2024/02/18 10:35:51;;;;;;;;;;;;;;;26.27;40.66;95503.06;4896450;29;9081;-38
2024/02/18 10:38:24;;;;;;;;;;;;;;;26.28;41.30;95497.06;4912030;29;7562;-39
2024/02/18 10:41:03;;;;;;;;;;;;;;;26.28;41.08;95488.00;4897209;29;7632;-41
2024/02/18 10:43:48;;;;;;;;;;;;;;;26.27;41.02;95486.50;4913014;29;7238;-38
2024/02/18 10:46:29;;;;;;;;;;;;;;;26.27;41.02;95481.00;4900103;29;7290;-38
2024/02/18 10:49:28;;;;;;;;;;;;;;;26.28;40.34;95474.22;4895288;29;7461;-39
2024/02/18 10:52:10;;;;;;;;;;;;;;;26.26;41.28;95477.47;4969699;28;6976;-38
2024/02/18 10:55:00;;;;;;;;;;;;;;;26.27;40.62;95475.47;4988161;28;7521;-38
2024/02/18 10:58:09;;;;;;;;;;;;;;;26.27;41.94;95475.47;4977468;28;7069;-38
2024/02/18 11:00:57;;;;;;;;;;;;;;;26.29;41.95;95467.47;4936007;29;7017;-38
2024/02/18 11:03:54;;;;;;;;;;;;;;;26.28;41.37;95466.72;4936246;29;7379;-38
2024/02/18 11:06:35;;;;;;;;;;;;;;;26.24;40.95;95465.41;4918834;29;7073;-38
2024/02/18 11:09:19;;;;;;;;;;;;;;;26.27;40.56;95475.47;4936333;29;9202;-38
2024/02/18 11:12:00;;;;;;;;;;;;;;;26.27;40.57;95475.47;4933875;29;6996;-39
2024/02/18 11:14:32;;;;;;;;;;;;;;;26.27;40.58;95476.25;4917321;29;8933;-38
2024/02/18 11:17:00;;;;;;;;;;;;;;;26.24;40.14;95465.41;4926647;29;7014;-38
2024/02/18 11:19:59;;;;;;;;;;;;;;;26.29;40.58;95467.47;4914264;29;7503;-38
2024/02/18 11:22:42;;;;;;;;;;;;;;;26.28;40.92;95454.91;4918467;29;7274;-39
2024/02/18 11:25:33;;;;;;;;;;;;;;;26.28;40.91;95449.41;4936580;29;8697;-38
2024/02/18 11:28:42;;;;;;;;;;;;;;;26.28;41.16;95444.66;4936946;28;7335;-38
2024/02/18 11:34:48;;;;;;;;;;;;;;;26.44;40.26;95444.03;4933329;28;6769;-38
2024/02/18 11:37:39;;;;;;;;;;;;;;;26.51;42.11;95432.50;4986361;28;8714;-39
2024/02/18 11:40:08;;;;;;;;;;;;;;;26.49;40.25;95423.97;5034781;28;9133;-38
2024/02/18 11:42:38;;;;;;;;;;;;;;;26.45;40.43;95430.97;5033430;28;7271;-38
2024/02/18 11:45:24;;;;;;;;;;;;;;;26.49;39.97;95426.00;5038839;28;7014;-38
2024/02/18 11:48:05;;;;;;;;;;;;;;;26.54;40.02;95422.50;5039488;28;8809;-38
2024/02/18 11:51:04;;;;;;;;;;;;;;;26.54;40.32;95408.69;5026454;28;7303;-39
2024/02/18 11:53:32;;;;;;;;;;;;;;;26.54;40.86;95406.72;4948062;28;9539;-38
2024/02/18 11:55:59;;;;;;;;;;;;;;;26.54;40.17;95414.22;4973043;28;7251;-38
2024/02/18 11:58:27;;;;;;;;;;;;;;;26.55;40.58;95410.22;4956627;28;8750;-38
2024/02/18 12:00:53;;;;;;;;;;;;;;;26.54;40.92;95411.47;4961860;28;8507;-38
2024/02/18 12:03:38;;;;;;;;;;;;;;;26.55;40.87;95404.72;4959537;28;7276;-38
2024/02/18 12:06:07;;;;;;;;;;;;;;;26.53;40.69;95387.91;4966184;28;7254;-38
2024/02/18 12:08:33;;;;;;;;;;;;;;;26.51;40.84;95393.16;4952592;28;6998;-38
2024/02/18 12:11:06;;;;;;;;;;;;;;;26.53;40.41;95404.44;4937786;28;7228;-38
2024/02/18 12:13:35;;;;;;;;;;;;;;;26.54;40.88;95394.91;4958792;28;7075;-38
2024/02/18 12:16:04;;;;;;;;;;;;;;;26.52;40.17;95391.88;4956329;28;8258;-38
2024/02/18 12:18:39;;;;;;;;;;;;;;;26.53;40.50;95391.41;4956887;28;9136;-38
2024/02/18 12:21:37;;;;;;;;;;;;;;;26.53;40.48;95383.13;4959793;28;9187;-38
2024/02/18 12:24:16;;;;;;;;;;;;;;;26.51;40.05;95379.34;4956969;28;7643;-38
2024/02/18 12:26:44;;;;;;;;;;;;;;;26.51;40.21;95379.34;4957663;28;7322;-38
2024/02/18 12:29:22;;;;;;;;;;;;;;;26.51;40.63;95373.84;4988733;28;8759;-38
2024/02/18 12:31:49;;;;;;;;;;;;;;;26.51;40.18;95368.31;5033866;28;7367;-38
2024/02/18 12:34:48;;;;;;;;;;;;;;;26.50;40.83;95361.28;5039281;28;7227;-38
2024/02/18 12:37:18;;;;;;;;;;;;;;;26.49;40.15;95357.03;4991249;28;6860;-38
2024/02/18 12:39:44;;;;;;;;;;;;;;;26.46;40.22;95344.22;4990623;28;7067;-38
2024/02/18 12:42:10;;;;;;;;;;;;;;;26.53;40.36;95355.56;4989356;28;9066;-38
2024/02/18 12:44:41;;;;;;;;;;;;;;;26.53;40.77;95352.03;4989552;28;7337;-38
2024/02/18 12:47:09;;;;;;;;;;;;;;;26.55;40.80;95346.78;4987696;28;6976;-38
2024/02/18 12:49:35;;;;;;;;;;;;;;;26.53;40.01;95352.03;4974260;28;8856;-38
2024/02/18 12:52:04;;;;;;;;;;;;;;;26.53;40.21;95357.53;4987185;28;7272;-38
2024/02/18 12:54:31;;;;;;;;;;;;;;;26.51;40.22;95349.00;4991297;28;7184;-38
2024/02/18 12:56:57;;;;;;;;;;;;;;;26.55;40.08;95346.78;4990643;28;7053;-38
2024/02/18 12:59:24;;;;;;;;;;;;;;;26.54;40.56;95345.25;4989326;28;7340;-38
2024/02/18 13:01:54;;;;;;;;;;;;;;;26.52;40.45;95337.47;4973889;28;7435;-38
2024/02/18 13:04:24;;;;;;;;;;;;;;;26.52;40.22;95339.47;4987475;28;7372;-42
2024/02/18 13:07:04;;;;;;;;;;;;;;;26.52;40.07;95320.91;4988650;28;7538;-42
2024/02/18 13:09:35;;;;;;;;;;;;;;;26.52;40.24;95326.44;4993128;28;9086;-42
2024/02/18 13:12:05;;;;;;;;;;;;;;;26.51;40.31;95324.91;4988064;28;6981;-43
2024/02/18 13:14:30;;;;;;;;;;;;;;;26.52;40.04;95320.16;5023465;28;8446;-43
2024/02/18 13:16:56;;;;;;;;;;;;;;;26.52;40.11;95322.91;5021535;28;6983;-45
2024/02/18 13:19:25;;;;;;;;;;;;;;;26.54;39.98;95312.13;5041084;28;9329;-41
2024/02/18 13:21:52;;;;;;;;;;;;;;;26.52;39.12;95311.88;5039418;28;7212;-42
2024/02/18 13:24:48;;;;;;;;;;;;;;;26.53;39.33;95308.66;5032331;28;7119;-43
2024/02/18 13:27:16;;;;;;;;;;;;;;;26.54;39.38;95312.13;4991601;28;7270;-41
2024/02/18 13:30:17;;;;;;;;;;;;;;;26.58;38.76;95307.13;4995302;28;7196;-44
2024/02/18 13:33:10;;;;;;;;;;;;;;;26.58;38.92;95301.63;4969399;28;9468;-43
2024/02/18 13:35:38;;;;;;;;;;;;;;;26.57;38.20;95300.13;4956988;28;7320;-43
2024/02/18 13:38:14;;;;;;;;;;;;;;;26.56;38.95;95298.59;4972977;28;7047;-43
2024/02/18 13:41:11;;;;;;;;;;;;;;;26.56;38.53;95304.13;4972895;28;7427;-42
2024/02/18 13:43:47;;;;;;;;;;;;;;;26.56;38.87;95309.63;4909650;29;7305;-43
2024/02/18 13:46:24;;;;;;;;;;;;;;;26.55;39.07;95308.91;4915615;29;9062;-44
2024/02/18 13:49:01;;;;;;;;;;;;;;;26.54;39.23;95296.34;4909796;29;7291;-42
2024/02/18 13:51:27;;;;;;;;;;;;;;;26.54;39.23;95287.31;4930396;29;7341;-43
2024/02/18 13:53:53;;;;;;;;;;;;;;;26.53;39.23;95283.81;4904946;29;7240;-42
2024/02/18 13:56:19;;;;;;;;;;;;;;;26.51;38.92;95269.00;4916567;29;7617;-42